Time;durP1;ratioP1;P1;durP2;ratioP2;P2;SDS_P1;SDS_P2;PMS_P1;PMS_P2;Temp;Humidity;BMP_temperature;BMP_pressure;BME280_temperature;BME280_humidity;BME280_pressure;Samples;Min_cycle;Max_cycle;Signal;HPM_P1;HPM_P2
2022/03/11 00:01:32;;;;;;;26.30;20.05;;;;;;;8.15;49.32;102225.97;4763536;29;121562;-90
2022/03/11 00:03:58;;;;;;;27.17;20.35;;;;;;;8.50;49.17;102287.19;4763526;29;119277;-91
2022/03/11 00:06:23;;;;;;;24.92;20.65;;;;;;;8.60;49.55;102306.31;4783270;29;119523;-93
2022/03/11 00:08:51;;;;;;;23.65;19.75;;;;;;;8.50;49.60;102281.72;4776171;29;119473;-91
2022/03/11 00:11:19;;;;;;;28.67;21.98;;;;;;;8.05;49.46;102220.56;4747994;29;122196;-92
2022/03/11 00:13:45;;;;;;;26.23;20.60;;;;;;;8.10;49.25;102225.59;4764242;29;122230;-93
2022/03/11 00:16:11;;;;;;;28.52;20.85;;;;;;;8.10;49.13;102225.59;4764368;29;119600;-91
2022/03/11 00:18:41;;;;;;;26.08;20.08;;;;;;;8.44;49.16;102283.31;4752131;29;122446;-94
2022/03/11 00:21:11;;;;;;;28.00;21.20;;;;;;;8.22;48.83;102249.75;4764221;29;121575;-94
2022/03/11 00:23:41;;;;;;;25.88;19.25;;;;;;;8.02;48.55;102222.88;4752030;29;121059;-95
2022/03/11 00:26:09;;;;;;;28.08;22.13;;;;;;;8.04;48.96;102236.16;4782065;29;122329;-94
2022/03/11 00:28:35;;;;;;;26.80;20.23;;;;;;;8.23;49.06;102270.47;4749195;29;119595;-94
2022/03/11 00:31:01;;;;;;;27.17;19.90;;;;;;;8.27;48.86;102273.97;4776804;29;119773;-92
2022/03/11 00:33:27;;;;;;;23.83;19.42;;;;;;;8.43;48.95;102304.41;4762714;29;122345;-90
2022/03/11 00:35:53;;;;;;;25.55;18.60;;;;;;;8.22;48.45;102285.31;4764482;29;120174;-91
2022/03/11 00:38:18;;;;;;;23.45;18.83;;;;;;;8.18;48.25;102270.88;4763203;29;121550;-89
2022/03/11 00:40:44;;;;;;;23.23;19.60;;;;;;;7.89;48.70;102221.75;4777737;29;120623;-94
2022/03/11 00:43:10;;;;;;;27.95;19.75;;;;;;;8.21;48.41;102273.59;4764138;29;119735;-93
2022/03/11 00:45:38;;;;;;;24.00;18.55;;;;;;;7.87;48.20;102228.78;4764165;29;121469;-93
2022/03/11 00:48:04;;;;;;;22.10;18.17;;;;;;;7.78;48.07;102215.53;4783689;29;122635;-94
2022/03/11 00:50:30;;;;;;;21.98;17.83;;;;;;;8.38;47.63;102296.63;4753307;29;120701;-96
2022/03/11 00:52:56;;;;;;;23.52;18.27;;;;;;;7.88;47.53;102236.59;4765529;29;123095;-93
2022/03/11 00:55:26;;;;;;;21.45;17.23;;;;;;;7.79;47.52;102221.75;4765124;29;119762;-94
2022/03/11 00:58:05;;;;;;;22.63;18.58;;;;;;;7.80;48.00;102226.84;4766264;29;121595;-91
2022/03/11 01:00:31;;;;;;;24.10;18.75;;;;;;;7.83;48.57;102231.53;4765101;29;122790;-94
2022/03/11 01:02:57;;;;;;;23.73;18.27;;;;;;;8.25;48.18;102298.19;4766558;29;119996;-93
2022/03/11 01:05:34;;;;;;;25.95;18.73;;;;;;;7.77;48.25;102224.88;4751740;29;122148;-93
2022/03/11 01:08:03;;;;;;;24.65;18.20;;;;;;;7.74;47.97;102217.47;4765263;29;122676;-95
2022/03/11 01:10:36;;;;;;;17.50;13.87;;;;;;;7.67;48.06;102209.31;4770130;29;119552;-96
2022/03/11 01:13:01;;;;;;;24.05;18.17;;;;;;;7.74;47.86;102216.72;4779310;29;119889;-95
2022/03/11 01:15:30;;;;;;;23.30;18.35;;;;;;;7.66;47.64;102219.47;4778305;29;119728;-95
2022/03/11 01:17:59;;;;;;;21.75;17.23;;;;;;;7.87;48.31;102247.91;4764196;29;120449;-94
2022/03/11 01:20:27;;;;;;;23.02;17.70;;;;;;;7.73;47.16;102232.31;4764634;29;122948;-93
2022/03/11 01:22:53;;;;;;;22.45;17.95;;;;;;;7.80;47.71;102254.16;4778325;29;119987;-93
2022/03/11 01:25:21;;;;;;;21.88;16.42;;;;;;;7.80;47.72;102251.41;4764497;29;121798;-93
2022/03/11 01:27:49;;;;;;;22.13;16.70;;;;;;;7.75;47.17;102257.28;4764105;29;121557;-95
2022/03/11 01:30:16;;;;;;;20.75;16.10;;;;;;;7.35;47.28;102196.47;4779051;29;119891;-93
2022/03/11 01:32:43;;;;;;;21.38;16.02;;;;;;;7.55;47.45;102235.06;4767801;29;121835;-95
2022/03/11 01:35:11;;;;;;;23.25;16.30;;;;;;;7.46;46.66;102214.78;4749095;29;119933;-93
2022/03/11 01:37:40;;;;;;;21.38;16.73;;;;;;;7.45;46.69;102213.25;4763938;29;121893;-93
2022/03/11 01:40:11;;;;;;;22.52;17.08;;;;;;;7.61;47.22;102238.97;4779201;29;122834;-92
2022/03/11 01:42:44;;;;;;;21.60;16.45;;;;;;;7.25;46.74;102183.59;4763520;29;119495;-92
2022/03/11 01:45:13;;;;;;;20.23;16.02;;;;;;;7.55;46.93;102237.00;4779370;29;121277;-93
2022/03/11 01:47:38;;;;;;;19.65;15.82;;;;;;;7.18;47.24;102183.63;4778786;29;120891;-94
2022/03/11 01:50:14;;;;;;;19.58;15.48;;;;;;;7.24;46.69;102187.50;4749385;29;119823;-92
2022/03/11 01:52:40;;;;;;;18.98;15.48;;;;;;;7.11;46.76;102177.38;4762494;29;121698;-93
2022/03/11 01:55:08;;;;;;;19.65;15.55;;;;;;;7.07;46.48;102172.69;4766957;29;122798;-92
2022/03/11 01:57:37;;;;;;;18.67;14.52;;;;;;;7.12;46.57;102185.19;4778866;29;122044;-92
2022/03/11 02:00:07;;;;;;;22.38;16.13;;;;;;;7.47;46.26;102243.66;4761961;29;121561;-93
2022/03/11 02:02:38;;;;;;;21.95;15.77;;;;;;;7.21;46.65;102206.63;4777738;29;119715;-92
2022/03/11 02:05:06;;;;;;;20.27;15.30;;;;;;;7.12;46.80;102190.63;4747440;29;121986;-92
2022/03/11 02:07:35;;;;;;;22.83;15.50;;;;;;;7.30;46.28;102217.91;4777577;29;122878;-92
2022/03/11 02:10:03;;;;;;;17.85;14.73;;;;;;;7.00;46.29;102172.69;4763183;29;119348;-91
2022/03/11 02:12:30;;;;;;;20.65;14.57;;;;;;;7.00;46.30;102178.13;4762116;29;121972;-91
2022/03/11 02:14:56;;;;;;;19.48;14.55;;;;;;;7.31;46.38;102236.63;4778233;29;120397;-93
2022/03/11 02:17:26;;;;;;;19.33;14.82;;;;;;;7.34;46.31;102232.38;4767658;29;119531;-92
2022/03/11 02:19:52;;;;;;;18.10;14.27;;;;;;;7.53;45.58;102272.13;4762695;29;122641;-92
2022/03/11 02:22:24;;;;;;;21.02;14.82;;;;;;;6.92;46.15;102164.91;4761903;29;121284;-93
2022/03/11 02:24:54;;;;;;;19.10;14.15;;;;;;;7.28;46.06;102228.44;4763506;29;122174;-91
2022/03/11 02:27:27;;;;;;;20.83;14.35;;;;;;;7.19;45.65;102220.66;4778641;29;119937;-93
2022/03/11 02:29:52;;;;;;;21.10;14.20;;;;;;;7.29;46.19;102243.66;4762459;29;119854;-91
2022/03/11 02:32:18;;;;;;;18.15;13.93;;;;;;;6.91;46.14;102182.44;4762724;29;121767;-93
2022/03/11 02:34:47;;;;;;;19.38;13.77;;;;;;;7.02;45.94;102196.84;4763389;29;122936;-93
2022/03/11 02:37:15;;;;;;;19.45;13.32;;;;;;;6.95;45.53;102180.47;4755955;29;119643;-93
2022/03/11 02:39:43;;;;;;;17.75;12.60;;;;;;;7.45;45.96;102267.84;4754845;29;122663;-94
2022/03/11 02:42:11;;;;;;;19.63;13.25;;;;;;;6.94;45.56;102176.19;4771455;29;120224;-94
2022/03/11 02:44:40;;;;;;;18.67;12.35;;;;;;;6.76;45.38;102152.41;4772729;29;121845;-94
2022/03/11 02:47:29;;;;;;;18.88;12.90;;;;;;;7.39;45.08;102251.06;4782448;29;121818;-94
2022/03/11 02:49:55;;;;;;;18.85;13.05;;;;;;;6.78;45.14;102166.44;4748419;29;119825;-93
2022/03/11 02:52:23;;;;;;;16.88;12.40;;;;;;;6.98;45.35;102190.63;4763178;29;122036;-93
2022/03/11 02:54:49;;;;;;;16.88;12.30;;;;;;;7.12;45.08;102217.94;4762208;29;123311;-94
2022/03/11 02:57:16;;;;;;;17.08;12.10;;;;;;;6.82;45.11;102174.59;4778306;29;119420;-94
2022/03/11 02:59:46;;;;;;;18.70;11.95;;;;;;;6.82;44.90;102179.28;4764427;29;121776;-94
2022/03/11 03:02:12;;;;;;;17.63;12.25;;;;;;;7.26;45.18;102250.66;4768346;29;120331;-92
2022/03/11 03:04:38;;;;;;;17.38;12.05;;;;;;;6.78;45.69;102176.56;4749528;29;121953;-93
2022/03/11 03:07:05;;;;;;;18.70;11.95;;;;;;;6.64;44.94;102155.50;4772462;29;120936;-93
2022/03/11 03:09:31;;;;;;;17.13;12.27;;;;;;;7.00;45.05;102208.16;4758125;29;119938;-94
2022/03/11 03:12:01;;;;;;;16.83;11.82;;;;;;;6.65;44.76;102162.53;4765117;29;122470;-93
2022/03/11 03:14:27;;;;;;;17.88;11.43;;;;;;;6.99;45.09;102201.13;4765277;29;123340;-93
2022/03/11 03:16:56;;;;;;;16.77;11.27;;;;;;;6.77;44.75;102173.06;4750108;29;120130;-94
2022/03/11 03:19:26;;;;;;;17.65;11.88;;;;;;;6.63;44.65;102150.44;4750039;29;121735;-93
2022/03/11 03:21:54;;;;;;;18.00;11.57;;;;;;;6.63;44.99;102153.97;4750989;29;126595;-93
2022/03/11 03:24:19;;;;;;;16.08;10.98;;;;;;;6.62;44.66;102171.47;4759012;29;120632;-91
2022/03/11 03:26:47;;;;;;;17.48;11.55;;;;;;;6.57;44.27;102160.16;4764434;29;121433;-93
2022/03/11 03:29:15;;;;;;;19.85;12.43;;;;;;;6.60;44.87;102175.75;4764748;29;119979;-92
2022/03/11 03:31:41;;;;;;;18.33;11.60;;;;;;;6.57;44.37;102166.38;4749999;29;122234;-91
2022/03/11 03:34:16;;;;;;;16.48;11.25;;;;;;;6.53;44.51;102160.16;4777170;29;119898;-91
2022/03/11 03:36:44;;;;;;;18.55;11.70;;;;;;;6.87;44.66;102212.44;4765003;29;119431;-96
2022/03/11 03:39:13;;;;;;;17.20;11.25;;;;;;;7.03;44.38;102239.34;4749362;29;122065;-93
2022/03/11 03:41:38;;;;;;;19.15;11.75;;;;;;;6.96;44.73;102231.94;4779392;29;121111;-93
2022/03/11 03:44:04;;;;;;;17.67;11.65;;;;;;;6.63;44.75;102178.50;4767440;29;119823;-90
2022/03/11 03:46:37;;;;;;;20.88;11.95;;;;;;;6.71;44.52;102198.38;4772889;29;122972;-93
2022/03/11 03:49:14;;;;;;;19.25;11.75;;;;;;;6.74;45.07;102198.38;4777632;29;119536;-90
2022/03/11 03:51:42;;;;;;;17.50;11.40;;;;;;;6.98;44.69;102228.81;4765008;29;121331;-91
2022/03/11 03:54:11;;;;;;;18.27;11.68;;;;;;;6.91;44.50;102212.44;4776781;29;120105;-94
2022/03/11 03:56:38;;;;;;;16.75;11.15;;;;;;;6.69;44.50;102181.63;4771407;29;119662;-93
2022/03/11 03:59:06;;;;;;;15.82;11.27;;;;;;;6.39;44.59;102121.97;4761538;29;121042;-94
2022/03/11 04:01:35;;;;;;;18.50;11.70;;;;;;;6.47;44.26;102140.66;4776309;29;121417;-94
2022/03/11 04:04:05;;;;;;;20.17;12.13;;;;;;;6.75;44.43;102180.84;4762075;29;119497;-95
2022/03/11 04:06:32;;;;;;;20.98;11.63;;;;;;;6.44;44.09;102146.13;4767986;29;120621;-93
2022/03/11 04:09:01;;;;;;;19.13;11.93;;;;;;;6.74;44.17;102192.13;4763953;29;119707;-92
2022/03/11 04:11:30;;;;;;;19.00;12.32;;;;;;;6.53;44.12;102154.69;4777176;29;121478;-92
2022/03/11 04:14:05;;;;;;;20.50;12.00;;;;;;;6.74;44.28;102186.69;4766469;29;123073;-91
2022/03/11 04:16:32;;;;;;;20.00;12.35;;;;;;;6.91;44.26;102207.75;4762656;29;120349;-89
2022/03/11 04:18:59;;;;;;;19.60;11.82;;;;;;;6.37;44.15;102132.44;4777621;29;121961;-93
2022/03/11 04:21:25;;;;;;;17.67;11.73;;;;;;;6.29;44.37;102119.97;4761170;29;123260;-91
2022/03/11 04:23:53;;;;;;;18.83;12.38;;;;;;;6.41;44.28;102141.44;4749054;29;119633;-92
2022/03/11 04:26:22;;;;;;;21.08;11.98;;;;;;;6.79;44.30;102199.94;4772527;29;122342;-91
2022/03/11 04:28:53;;;;;;;19.08;11.95;;;;;;;6.55;44.51;102174.19;4765974;29;122751;-91
2022/03/11 04:31:19;;;;;;;19.90;11.48;;;;;;;6.44;43.83;102149.63;4777013;29;121965;-91
2022/03/11 04:33:45;;;;;;;19.98;12.85;;;;;;;6.20;44.07;102112.19;4773972;29;122947;-92
2022/03/11 04:36:13;;;;;;;19.15;12.25;;;;;;;6.27;43.79;102122.31;4763406;29;122201;-90
2022/03/11 04:38:41;;;;;;;20.08;11.93;;;;;;;6.18;43.95;102116.47;4766781;29;119575;-92
2022/03/11 04:41:09;;;;;;;18.10;11.75;;;;;;;6.63;44.17;102185.91;4765370;29;122012;-93
2022/03/11 04:43:37;;;;;;;17.70;11.65;;;;;;;6.45;43.52;102161.31;4795904;29;119575;-93
2022/03/11 04:46:02;;;;;;;19.45;11.75;;;;;;;6.41;43.36;102164.03;4767379;29;121890;-92
2022/03/11 04:48:31;;;;;;;19.33;11.38;;;;;;;6.07;43.96;102111.75;4781743;29;122904;-93
2022/03/11 04:50:59;;;;;;;22.40;12.40;;;;;;;6.37;43.53;102152.31;4767031;29;122060;-94
2022/03/11 04:53:39;;;;;;;18.38;11.90;;;;;;;6.05;43.93;102113.28;4786632;29;119929;-93
2022/03/11 04:59:43;;;;;;;20.58;12.20;;;;;;;6.40;43.98;102170.66;4801665;23;120830;-91
2022/03/11 05:02:09;;;;;;;17.42;12.00;;;;;;;6.57;43.71;102192.88;4732482;29;122742;-90
2022/03/11 05:04:34;;;;;;;20.55;11.95;;;;;;;6.55;43.47;102187.03;4744655;29;119741;-91
2022/03/11 05:07:02;;;;;;;19.65;11.77;;;;;;;6.01;43.89;102107.84;4748468;29;121675;-92
2022/03/11 05:09:28;;;;;;;18.52;11.90;;;;;;;6.00;43.45;102100.06;4733622;29;122530;-92
2022/03/11 05:12:01;;;;;;;20.83;12.07;;;;;;;6.00;43.43;102105.50;4754275;29;119536;-91
2022/03/11 05:14:27;;;;;;;12.27;8.50;;;;;;;6.02;43.48;102123.03;4749381;29;122588;-91
2022/03/11 05:16:53;;;;;;;15.98;10.88;;;;;;;6.12;43.63;102129.66;4757666;29;120118;-92
2022/03/11 05:19:18;;;;;;;19.70;12.00;;;;;;;6.19;43.01;102142.53;4737168;29;121933;-92
2022/03/11 05:21:54;;;;;;;18.77;11.63;;;;;;;6.28;43.33;102167.47;4771957;29;122396;-92
2022/03/11 05:24:20;;;;;;;21.23;12.27;;;;;;;6.26;43.71;102159.69;4749940;29;119534;-94
2022/03/11 05:26:48;;;;;;;20.98;11.90;;;;;;;5.93;44.00;102106.25;4749251;29;120039;-92
2022/03/11 05:29:15;;;;;;;23.45;12.18;;;;;;;6.25;43.41;102149.97;4739091;29;123276;-92
2022/03/11 05:31:41;;;;;;;19.08;11.88;;;;;;;5.96;43.65;102110.94;4750643;29;120548;-92
2022/03/11 05:34:09;;;;;;;18.58;11.82;;;;;;;5.92;43.39;102096.53;4762072;29;121817;-92
2022/03/11 05:36:42;;;;;;;19.65;11.55;;;;;;;5.82;43.20;102089.06;4751436;29;119459;-92
2022/03/11 05:39:09;;;;;;;20.50;12.13;;;;;;;5.91;43.49;102111.28;4750320;29;119590;-92
2022/03/11 05:41:37;;;;;;;22.02;11.48;;;;;;;5.92;43.86;102103.91;4747854;29;121260;-91
2022/03/11 05:44:05;;;;;;;31.40;13.05;;;;;;;6.44;43.86;102189.72;4735030;29;119540;-91
2022/03/11 05:46:32;;;;;;;19.35;11.48;;;;;;;6.03;43.96;102121.84;4735268;29;122303;-91
2022/03/11 05:48:57;;;;;;;19.52;11.82;;;;;;;5.88;43.97;102089.47;4748039;29;123120;-92
2022/03/11 05:51:26;;;;;;;20.15;12.07;;;;;;;5.91;43.86;102092.22;4764726;29;119440;-92
2022/03/11 05:53:52;;;;;;;21.73;12.35;;;;;;;6.17;43.98;102133.97;4749487;29;121800;-92
2022/03/11 05:56:17;;;;;;;20.42;12.23;;;;;;;6.01;43.76;102102.38;4752157;29;122727;-91
2022/03/11 05:58:45;;;;;;;20.73;12.18;;;;;;;5.98;44.63;102110.56;4751620;29;121749;-92
2022/03/11 06:01:12;;;;;;;21.95;11.77;;;;;;;6.04;44.38;102109.00;4765852;29;122949;-91
2022/03/11 06:03:41;;;;;;;17.73;11.80;;;;;;;6.39;44.51;102166.38;4749218;29;119566;-92
2022/03/11 06:06:06;;;;;;;20.55;12.30;;;;;;;6.14;44.40;102122.66;4764485;29;120692;-92
2022/03/11 06:08:32;;;;;;;19.65;11.38;;;;;;;6.12;44.03;102119.53;4747759;29;122240;-92
2022/03/11 06:10:58;;;;;;;19.30;12.23;;;;;;;5.95;44.39;102094.97;4748310;29;119962;-91
2022/03/11 06:13:23;;;;;;;19.02;12.45;;;;;;;6.27;43.56;102144.91;4734243;29;121847;-91
2022/03/11 06:15:49;;;;;;;21.40;12.15;;;;;;;5.91;43.78;102092.22;4755694;29;121478;-93
2022/03/11 06:18:18;;;;;;;21.08;11.90;;;;;;;6.43;43.91;102171.81;4752604;29;120025;-91
2022/03/11 06:20:44;;;;;;;19.23;11.45;;;;;;;5.87;44.17;102077.78;4742937;29;122758;-92
2022/03/11 06:23:09;;;;;;;20.20;12.23;;;;;;;6.46;44.53;102165.59;4738252;29;119748;-91
2022/03/11 06:25:36;;;;;;;18.90;11.63;;;;;;;5.94;44.02;102083.31;4736826;29;122187;-92
2022/03/11 06:28:02;;;;;;;18.27;11.88;;;;;;;5.96;43.87;102099.25;4763268;29;122003;-92
2022/03/11 06:30:31;;;;;;;18.77;11.90;;;;;;;5.94;43.56;102096.16;4734397;29;122781;-90
2022/03/11 06:32:56;;;;;;;20.67;12.40;;;;;;;6.33;43.64;102142.56;4752701;29;122111;-92
2022/03/11 06:35:24;;;;;;;20.73;12.63;;;;;;;6.40;43.89;102156.25;4743979;29;123323;-92
2022/03/11 06:37:50;;;;;;;18.58;12.15;;;;;;;6.08;43.96;102113.31;4746962;29;119579;-92
2022/03/11 06:40:29;;;;;;;;;;;;;;;;;;;;;
2022/03/11 06:43:03;;;;;;;17.98;12.18;;;;;;;6.09;43.90;102109.41;4770813;29;119679;-92
2022/03/11 06:45:37;;;;;;;19.63;11.52;;;;;;;6.05;43.33;102096.94;4768650;29;121770;-93
2022/03/11 06:51:32;;;;;;;22.50;12.77;;;;;;;6.15;43.53;102113.34;4896877;23;120739;-92
2022/03/11 06:57:14;;;;;;;18.23;11.63;;;;;;;6.07;42.88;102119.91;5083290;23;120858;-92
2022/03/11 06:59:42;;;;;;;20.83;12.45;;;;;;;6.10;43.03;102132.00;5195382;23;121455;-93
2022/03/11 07:05:08;;;;;;;18.08;12.02;;;;;;;6.69;43.55;102206.94;5611377;23;120086;31
2022/03/11 07:07:59;;;;;;;19.45;12.02;;;;;;;6.52;43.02;102174.16;4731439;29;119961;-93
2022/03/11 07:10:28;;;;;;;18.70;11.68;;;;;;;6.25;43.52;102127.38;4733574;29;121713;-93
2022/03/11 07:13:03;;;;;;;20.63;12.32;;;;;;;6.31;42.98;102126.59;4733632;29;119321;-92
2022/03/11 07:15:34;;;;;;;19.48;12.50;;;;;;;6.37;43.09;102132.44;4741488;29;120849;-92
2022/03/11 07:18:19;;;;;;;16.55;11.93;;;;;;;6.30;42.94;102121.53;4728409;29;122328;-93
2022/03/11 07:21:25;;;;;;;19.85;11.80;;;;;;;6.44;42.86;102127.03;4733283;29;119815;-92
2022/03/11 07:24:01;;;;;;;;;;;;;;;7.00;42.85;102204.66;4728379;29;120735;-92
2022/03/11 07:26:36;;;;;;;18.88;11.73;;;;;;;7.07;42.91;102207.38;4716837;29;121478;-92
2022/03/11 07:29:10;;;;;;;17.83;11.47;;;;;;;6.60;42.48;102110.31;4706609;29;120772;-92
2022/03/11 07:31:36;;;;;;;17.42;11.93;;;;;;;6.65;42.48;102113.44;4708436;29;121286;-92
2022/03/11 07:34:06;;;;;;;20.35;13.07;;;;;;;6.99;42.45;102159.44;4725182;29;119203;-91
2022/03/11 07:36:34;;;;;;;18.42;11.95;;;;;;;6.69;42.73;102119.69;4726209;29;122010;-93
2022/03/11 07:39:01;;;;;;;17.02;12.32;;;;;;;6.98;42.52;102158.66;4707864;29;122041;-90
2022/03/11 07:41:28;;;;;;;18.48;12.02;;;;;;;7.03;42.34;102165.66;4712870;29;119722;-93
2022/03/11 07:43:54;;;;;;;17.20;11.88;;;;;;;6.81;41.92;102115.00;4708717;29;122082;-93
2022/03/11 07:46:21;;;;;;;18.05;11.77;;;;;;;6.99;42.65;102146.56;4693923;29;122695;-90
2022/03/11 07:48:49;;;;;;;20.98;12.30;;;;;;;7.15;42.40;102168.03;4714787;29;120028;-91
2022/03/11 07:56:53;;;;;;;20.50;12.85;;;;;;;6.98;42.35;102109.53;5277457;23;120876;-93
2022/03/11 07:59:28;;;;;;;18.85;13.95;;;;;;;7.06;41.38;102099.41;4877954;23;122768;-92
2022/03/11 08:01:59;;;;;;;19.30;13.73;;;;;;;7.12;41.74;102094.34;4714140;29;119714;-93
2022/03/11 08:04:32;;;;;;;23.90;14.65;;;;;;;7.17;41.65;102092.00;4719733;29;121582;-91
2022/03/11 08:07:06;;;;;;;22.65;14.50;;;;;;;7.24;41.74;102088.47;4719643;29;122343;-91
2022/03/11 08:09:34;;;;;;;20.73;14.10;;;;;;;7.68;41.54;102146.09;4739906;29;119563;-93
2022/03/11 08:12:03;;;;;;;25.65;15.05;;;;;;;7.51;41.80;102089.56;4725604;29;121458;-96
2022/03/11 08:14:28;;;;;;;22.27;15.65;;;;;;;7.54;41.00;102068.88;4727779;29;119647;-93
2022/03/11 08:16:54;;;;;;;23.42;14.82;;;;;;;7.66;41.01;102071.97;4734013;29;122303;-92
2022/03/11 08:19:23;;;;;;;21.98;14.35;;;;;;;8.26;41.54;102152.88;4735164;29;121481;-94
2022/03/11 08:21:54;;;;;;;23.90;15.13;;;;;;;7.83;40.35;102070.34;4741173;29;119494;-92
2022/03/11 08:24:20;;;;;;;18.10;12.32;;;;;;;8.31;39.54;102149.75;4731008;29;121806;-91
2022/03/11 08:26:48;;;;;;;20.20;12.77;;;;;;;8.34;40.36;102136.50;4732123;29;123077;-94
2022/03/11 08:29:20;;;;;;;19.02;13.63;;;;;;;8.24;40.82;102110.72;4741206;29;119660;-96
2022/03/11 08:31:49;;;;;;;19.92;13.55;;;;;;;8.24;40.59;102105.25;4728622;29;121203;-93
2022/03/11 08:34:15;;;;;;;19.67;12.38;;;;;;;8.09;39.22;102066.31;4736116;29;122994;-93
2022/03/11 08:36:42;;;;;;;18.88;12.10;;;;;;;8.07;39.16;102059.69;4764608;29;121851;-94
2022/03/11 08:39:10;;;;;;;17.65;12.00;;;;;;;8.39;39.06;102092.31;4731666;29;122714;-92
2022/03/11 08:41:36;;;;;;;18.60;11.95;;;;;;;8.28;38.34;102078.66;4740834;29;119860;-93
2022/03/11 08:44:06;;;;;;;19.88;11.50;;;;;;;8.20;38.75;102058.03;4731663;29;122622;-92
2022/03/11 08:46:36;;;;;;;17.25;12.00;;;;;;;8.76;37.51;102140.91;4737141;29;122438;-92
2022/03/11 08:49:02;;;;;;;15.60;11.02;;;;;;;8.81;37.40;102143.22;4756049;29;121726;-92
2022/03/11 08:51:28;;;;;;;16.30;11.43;;;;;;;8.63;37.93;102098.81;4862077;23;122451;-91
2022/03/11 08:53:54;;;;;;;13.90;10.60;;;;;;;8.36;37.16;102054.84;4761765;29;123281;-91
2022/03/11 08:56:23;;;;;;;16.20;10.30;;;;;;;8.55;36.81;102082.44;4748619;29;119462;-90
2022/03/11 08:58:54;;;;;;;15.35;9.70;;;;;;;8.39;36.13;102040.38;4769424;29;122512;-91
2022/03/11 09:01:20;;;;;;;13.68;9.90;;;;;;;8.60;36.59;102073.03;4786096;29;119560;-91
2022/03/11 09:03:54;;;;;;;15.02;10.10;;;;;;;8.52;36.02;102047.69;4751916;29;121692;-91
2022/03/11 09:06:25;;;;;;;17.17;10.15;;;;;;;8.61;36.99;102042.53;4749807;29;122735;-90
2022/03/11 09:09:00;;;;;;;15.70;10.27;;;;;;;8.56;36.02;102039.47;4747807;29;119737;-90
2022/03/11 09:11:26;;;;;;;15.07;9.57;;;;;;;8.41;36.46;102003.25;4761271;29;122042;-91
2022/03/11 09:13:54;;;;;;;15.25;10.02;;;;;;;8.70;35.10;102063.16;4752643;29;121866;-91
2022/03/11 09:16:20;;;;;;;15.23;9.23;;;;;;;8.58;35.57;102032.41;4757356;29;119643;-91
2022/03/11 09:18:51;;;;;;;16.23;9.73;;;;;;;8.54;35.65;102028.16;4749079;29;122792;-90
2022/03/11 09:21:17;;;;;;;14.13;9.35;;;;;;;8.50;34.65;102009.00;4749556;29;119965;-91
2022/03/11 09:23:48;;;;;;;13.27;9.20;;;;;;;8.80;34.86;102048.63;4758103;29;120874;-90
2022/03/11 09:26:14;;;;;;;17.27;9.20;;;;;;;8.70;34.27;102036.59;4754393;29;122832;-91
2022/03/11 09:28:43;;;;;;;12.63;8.60;;;;;;;8.55;34.85;101999.63;4740540;29;119736;-91
2022/03/11 09:31:11;;;;;;;13.45;8.98;;;;;;;8.71;33.93;102013.53;4757053;29;121143;-90
2022/03/11 09:33:46;;;;;;;14.20;9.20;;;;;;;8.70;33.17;102003.75;4739605;29;121804;-91
2022/03/11 09:36:25;;;;;;;16.40;9.20;;;;;;;8.64;33.03;101997.19;4749518;29;120164;-90
2022/03/11 09:38:56;;;;;;;13.13;8.43;;;;;;;8.77;33.05;102011.16;4758208;29;121746;-91
2022/03/11 09:41:28;;;;;;;14.55;8.65;;;;;;;9.21;33.52;102070.50;4756742;29;119527;-91
2022/03/11 09:43:55;;;;;;;13.68;9.23;;;;;;;8.69;33.40;101985.81;4734959;29;121860;-90
2022/03/11 09:46:21;;;;;;;15.93;8.48;;;;;;;8.90;33.04;102014.91;4752238;29;122913;-91
2022/03/11 09:48:50;;;;;;;14.52;9.25;;;;;;;8.97;32.20;102020.31;4751779;29;119930;-92
2022/03/11 09:51:27;;;;;;;14.45;9.40;;;;;;;9.09;33.40;102022.53;4770729;29;122075;-91
2022/03/11 09:53:55;;;;;;;14.27;9.20;;;;;;;9.16;32.68;102029.91;4772033;29;121168;-92
2022/03/11 09:56:24;;;;;;;18.00;8.90;;;;;;;9.21;32.50;102030.22;4751721;29;119621;-91
2022/03/11 09:58:50;;;;;;;13.35;9.25;;;;;;;8.90;32.05;101977.38;4754399;29;122076;-92
2022/03/11 10:01:16;;;;;;;15.82;9.00;;;;;;;9.16;32.45;102017.00;4751179;29;122721;-91
2022/03/11 10:03:51;;;;;;;15.55;8.80;;;;;;;9.15;31.89;102020.13;4757604;29;121867;-91
2022/03/11 10:06:39;;;;;;;13.32;9.05;;;;;;;9.28;32.09;102028.63;4744339;29;122454;-91
2022/03/11 10:09:07;;;;;;;14.57;8.82;;;;;;;9.35;31.68;102017.56;4763896;29;120573;-91
2022/03/11 10:11:37;;;;;;;17.50;9.02;;;;;;;9.14;32.13;101983.78;4760568;29;120678;-90
2022/03/11 10:14:07;;;;;;;15.88;9.45;;;;;;;9.65;32.54;102052.41;4747544;29;122885;-90
2022/03/11 10:16:34;;;;;;;13.93;9.23;;;;;;;9.21;32.50;101980.94;4753104;29;119414;-92
2022/03/11 10:19:10;;;;;;;16.33;9.00;;;;;;;9.68;31.99;102057.06;4753153;29;121820;-92
2022/03/11 10:21:39;;;;;;;16.65;9.82;;;;;;;9.40;32.70;102004.19;4751262;29;122717;-92
2022/03/11 10:24:07;;;;;;;13.55;8.73;;;;;;;9.26;31.40;101970.75;4753620;29;119502;-91
2022/03/11 10:26:56;;;;;;;12.85;8.52;;;;;;;9.45;31.37;101992.00;4759785;29;122466;-92
2022/03/11 10:29:32;;;;;;;13.32;8.40;;;;;;;9.44;31.78;101991.22;4760784;29;119736;-92
2022/03/11 10:32:03;;;;;;;13.10;9.30;;;;;;;9.64;32.16;102018.78;4744433;29;121885;-91
2022/03/11 10:34:36;;;;;;;15.35;8.80;;;;;;;9.57;31.40;101990.69;4744181;29;122542;-91
2022/03/11 10:37:04;;;;;;;17.05;9.25;;;;;;;9.42;31.18;101954.47;4750513;29;120166;-92
2022/03/11 10:39:38;;;;;;;15.25;9.20;;;;;;;9.41;31.75;101944.72;4748755;29;121904;-91
2022/03/11 10:42:22;;;;;;;13.45;8.55;;;;;;;9.87;31.80;102001.63;4742350;29;121630;-92
2022/03/11 10:45:17;;;;;;;15.85;8.57;;;;;;;9.99;31.39;102000.31;4762217;29;119594;-92
2022/03/11 10:47:52;;;;;;;16.02;9.18;;;;;;;9.77;31.53;101961.47;4771924;29;121960;-92
2022/03/11 10:50:18;;;;;;;15.85;8.50;;;;;;;9.75;30.59;101950.91;4756126;29;119573;-92
2022/03/11 10:52:48;;;;;;;12.25;8.43;;;;;;;10.02;30.44;101985.75;4756631;29;122629;-92
2022/03/11 10:55:22;;;;;;;12.77;8.45;;;;;;;9.73;29.98;101939.59;4753975;29;121813;-92
2022/03/11 10:58:16;;;;;;;15.82;8.98;;;;;;;10.10;30.64;101989.94;4746211;29;120115;-92
2022/03/11 11:00:45;;;;;;;13.70;8.95;;;;;;;10.06;30.12;101964.53;4765179;29;121548;-91
2022/03/11 11:03:14;;;;;;;15.40;8.57;;;;;;;9.92;30.57;101931.84;4748981;29;122851;-91
2022/03/11 11:05:41;;;;;;;14.05;8.02;;;;;;;10.10;30.17;101948.81;4749029;29;119769;-92
2022/03/11 11:08:08;;;;;;;13.90;7.85;;;;;;;10.29;29.27;101980.28;4756367;29;121850;-92
2022/03/11 11:10:40;;;;;;;12.70;7.15;;;;;;;10.19;30.02;101951.03;4769292;29;119412;-92
2022/03/11 11:13:09;;;;;;;11.13;7.60;;;;;;;10.31;29.83;101955.94;4748375;29;121953;-90
2022/03/11 11:15:37;;;;;;;14.25;7.65;;;;;;;10.16;29.77;101917.75;4747465;29;121737;-90
2022/03/11 11:18:12;;;;;;;12.88;7.25;;;;;;;10.40;29.61;101936.97;4747678;29;119314;-92
2022/03/11 11:20:47;;;;;;;10.35;7.07;;;;;;;10.26;29.06;101905.09;4730172;29;121657;-90
2022/03/11 11:23:14;;;;;;;11.57;7.50;;;;;;;10.58;29.66;101937.44;4745312;29;122876;-90
2022/03/11 11:25:41;;;;;;;11.23;7.50;;;;;;;10.60;29.05;101929.56;4762238;29;119373;-90
2022/03/11 11:28:10;;;;;;;11.55;7.03;;;;;;;10.91;29.23;101974.09;4761070;29;121538;-92
2022/03/11 11:30:54;;;;;;;11.80;7.00;;;;;;;10.63;28.27;101922.47;4750827;29;122856;-91
2022/03/11 11:33:32;;;;;;;13.60;6.95;;;;;;;10.44;27.78;101883.63;4759031;29;120475;-91
2022/03/11 11:36:10;;;;;;;12.65;6.55;;;;;;;10.63;27.44;101908.75;4761706;29;123228;-90
2022/03/11 11:39:03;;;;;;;20.98;7.13;;;;;;;10.79;26.90;101921.78;4751489;29;119787;-91
2022/03/11 11:42:01;;;;;;;10.10;6.53;;;;;;;10.71;27.30;101899.97;4737822;29;119919;-91